createdAt,value
2022-12-12T00:00:32.257Z,93.25
2022-12-12T00:01:38.009Z,93.40
2022-12-12T00:02:42.302Z,93.79
2022-12-12T00:03:44.667Z,93.67
2022-12-12T00:04:47.836Z,93.85
2022-12-12T00:05:54.087Z,93.86
2022-12-12T00:06:57.135Z,93.88
2022-12-12T00:07:59.293Z,93.86
2022-12-12T00:09:04.511Z,94.11
2022-12-12T00:10:08.251Z,94.11
2022-12-12T00:11:11.755Z,94.20
2022-12-12T00:12:14.840Z,94.35
2022-12-12T00:13:16.976Z,94.55
2022-12-12T00:14:20.053Z,94.15
2022-12-12T00:15:22.122Z,94.61
2022-12-12T00:16:26.373Z,94.65
2022-12-12T00:17:28.473Z,94.65
2022-12-12T00:18:31.541Z,94.51
2022-12-12T00:19:33.574Z,94.79
2022-12-12T00:20:36.839Z,94.92
2022-12-12T00:21:39.076Z,94.89
2022-12-12T00:22:42.231Z,94.73
2022-12-12T00:23:44.696Z,94.88
2022-12-12T00:24:49.380Z,95.00
2022-12-12T00:25:56.060Z,94.73
2022-12-12T00:26:59.112Z,94.98
2022-12-12T00:28:02.542Z,94.96
2022-12-12T00:29:06.240Z,95.23
2022-12-12T00:30:09.400Z,94.87
2022-12-12T00:31:12.734Z,94.87
2022-12-12T00:32:15.890Z,95.13
2022-12-12T00:33:18.269Z,95.27
2022-12-12T00:34:21.246Z,95.21
2022-12-12T00:35:24.231Z,95.36
2022-12-12T00:36:29.532Z,95.29
2022-12-12T00:37:31.559Z,95.02
2022-12-12T00:38:34.871Z,95.08
2022-12-12T00:39:37.958Z,95.13
2022-12-12T00:40:44.050Z,95.13
2022-12-12T00:41:47.440Z,94.91
2022-12-12T00:42:49.543Z,94.61
2022-12-12T00:43:53.069Z,95.11
2022-12-12T00:44:55.093Z,94.99
2022-12-12T00:46:00.031Z,94.90
2022-12-12T00:47:02.921Z,94.90
2022-12-12T00:48:07.088Z,94.94
2022-12-12T00:49:09.213Z,95.08
2022-12-12T00:50:12.212Z,95.07
2022-12-12T00:51:18.322Z,94.86
2022-12-12T00:52:21.382Z,95.12
2022-12-12T00:53:23.708Z,95.06
2022-12-12T00:54:26.774Z,94.97
2022-12-12T00:55:29.025Z,94.93
2022-12-12T00:56:33.575Z,94.59
2022-12-12T00:57:35.864Z,94.84
2022-12-12T00:58:38.836Z,94.76
2022-12-12T00:59:40.853Z,94.77
2022-12-12T01:00:43.868Z,94.53
2022-12-12T01:01:46.878Z,94.51
2022-12-12T01:02:50.262Z,94.57
2022-12-12T01:03:53.887Z,94.88
2022-12-12T01:04:56.910Z,94.54
2022-12-12T01:05:59.065Z,94.52
2022-12-12T01:07:02.357Z,94.53
2022-12-12T01:08:04.647Z,94.43
2022-12-12T01:09:07.719Z,94.48
2022-12-12T01:10:10.493Z,94.72
2022-12-12T01:11:15.005Z,94.44
2022-12-12T01:12:19.438Z,94.31
2022-12-12T01:13:21.556Z,94.14
2022-12-12T01:14:24.634Z,94.17
2022-12-12T01:15:26.799Z,94.36
2022-12-12T01:16:30.437Z,94.07
2022-12-12T01:17:37.775Z,94.16
2022-12-12T01:18:41.821Z,94.08
2022-12-12T01:19:44.031Z,94.14
2022-12-12T01:20:47.182Z,94.12
2022-12-12T01:21:50.216Z,94.18
2022-12-12T01:22:53.263Z,94.15
2022-12-12T01:23:56.453Z,94.20
2022-12-12T01:25:00.477Z,94.40
2022-12-12T01:26:04.667Z,94.24
2022-12-12T01:27:06.688Z,94.27
2022-12-12T01:28:11.704Z,94.01
2022-12-12T01:29:13.955Z,94.17
2022-12-12T01:30:19.620Z,94.07
2022-12-12T01:31:22.314Z,94.03
2022-12-12T01:32:25.318Z,94.02
2022-12-12T01:33:28.410Z,94.13
2022-12-12T01:34:30.456Z,94.47
2022-12-12T01:35:34.387Z,94.14
2022-12-12T01:36:36.585Z,94.24
2022-12-12T01:37:41.593Z,94.76
2022-12-12T01:38:45.797Z,94.50
2022-12-12T01:39:47.972Z,94.90
2022-12-12T01:40:51.178Z,94.91
2022-12-12T01:41:53.158Z,94.95
2022-12-12T01:42:56.250Z,95.00
2022-12-12T01:44:02.652Z,94.83
2022-12-12T01:45:06.490Z,94.71
2022-12-12T01:46:38.897Z,95.01
2022-12-12T01:47:41.987Z,94.91
2022-12-12T01:48:49.451Z,95.18
2022-12-12T01:49:56.725Z,95.15
2022-12-12T01:51:01.130Z,95.52
2022-12-12T01:52:08.446Z,95.49
2022-12-12T01:53:11.285Z,95.53
2022-12-12T01:54:18.147Z,95.97
2022-12-12T01:55:23.943Z,95.75
2022-12-12T01:56:26.306Z,95.98
2022-12-12T01:57:33.449Z,96.01
2022-12-12T01:58:35.543Z,96.46
2022-12-12T01:59:40.988Z,96.51
2022-12-12T02:00:43.685Z,96.41
2022-12-12T02:01:47.210Z,96.75
2022-12-12T02:02:50.716Z,96.84
2022-12-12T02:03:53.258Z,96.58
2022-12-12T02:04:56.868Z,96.78
2022-12-12T02:06:02.925Z,97.14
2022-12-12T02:07:06.406Z,97.25
2022-12-12T02:08:10.520Z,97.19
2022-12-12T02:09:16.890Z,97.42
2022-12-12T02:10:19.130Z,97.43
2022-12-12T02:11:22.162Z,97.73
2022-12-12T02:12:25.198Z,97.64
2022-12-12T02:13:31.654Z,97.74
2022-12-12T02:14:37.919Z,97.62
2022-12-12T02:15:44.587Z,97.92
2022-12-12T02:17:02.612Z,98.07
2022-12-12T02:18:12.493Z,98.25
2022-12-12T02:19:37.623Z,98.19
2022-12-12T02:21:12.201Z,98.32
2022-12-12T02:22:25.115Z,98.51
2022-12-12T02:24:06.666Z,98.46
2022-12-12T02:25:31.826Z,98.62
2022-12-12T02:27:10.884Z,98.90
2022-12-12T02:28:34.042Z,98.88
2022-12-12T02:30:18.457Z,98.81
2022-12-12T02:31:27.588Z,99.02
2022-12-12T02:32:43.636Z,99.27
2022-12-12T02:33:56.513Z,99.14
2022-12-12T02:35:06.247Z,99.28
2022-12-12T02:36:16.734Z,99.34
2022-12-12T02:37:30.712Z,99.45
2022-12-12T02:38:43.586Z,99.49
2022-12-12T02:39:56.093Z,99.67
2022-12-12T02:41:12.216Z,99.56
2022-12-12T02:42:21.485Z,99.82
2022-12-12T02:43:33.598Z,100.00
2022-12-12T02:44:42.278Z,100.00
2022-12-12T02:45:49.586Z,100.00
2022-12-12T02:47:01.309Z,100.00
2022-12-12T02:48:12.142Z,100.00
2022-12-12T02:49:21.259Z,100.00
2022-12-12T02:50:26.851Z,100.00
2022-12-12T02:51:30.635Z,100.00
2022-12-12T02:52:33.837Z,100.00
2022-12-12T02:53:35.867Z,100.00
2022-12-12T02:54:39.224Z,100.00
2022-12-12T02:55:41.216Z,100.00
2022-12-12T02:56:48.459Z,100.00
2022-12-12T02:57:52.016Z,100.00
2022-12-12T02:58:55.105Z,100.00
2022-12-12T03:00:00.614Z,100.00
2022-12-12T03:01:17.297Z,100.00
2022-12-12T03:02:47.160Z,100.00
2022-12-12T03:04:13.327Z,100.00
2022-12-12T03:06:00.735Z,100.00
2022-12-12T03:07:29.657Z,100.00
2022-12-12T03:08:47.250Z,100.00
2022-12-12T03:10:02.099Z,100.00
2022-12-12T03:11:09.266Z,100.00
2022-12-12T03:12:18.075Z,100.00
2022-12-12T03:13:32.045Z,100.00
2022-12-12T03:14:47.281Z,100.00
2022-12-12T03:15:57.976Z,100.00
2022-12-12T03:17:02.168Z,100.00
2022-12-12T03:18:21.810Z,100.00
2022-12-12T03:19:29.207Z,100.00
2022-12-12T03:20:39.940Z,100.00
2022-12-12T03:21:47.233Z,100.00
2022-12-12T03:22:55.902Z,100.00
2022-12-12T03:24:05.776Z,100.00
2022-12-12T03:25:15.322Z,100.00
2022-12-12T03:26:24.779Z,100.00
2022-12-12T03:27:33.080Z,100.00
2022-12-12T03:28:39.721Z,100.00
2022-12-12T03:29:47.810Z,100.00
2022-12-12T03:30:55.603Z,100.00
2022-12-12T03:32:05.130Z,100.00
2022-12-12T03:33:16.601Z,100.00
2022-12-12T03:34:24.196Z,100.00
2022-12-12T03:35:30.518Z,100.00
2022-12-12T03:36:38.025Z,100.00
2022-12-12T03:37:46.782Z,100.00
2022-12-12T03:38:57.318Z,100.00
2022-12-12T03:40:03.621Z,100.00
2022-12-12T03:41:09.967Z,100.00
2022-12-12T03:42:20.138Z,100.00
2022-12-12T03:43:26.167Z,100.00
2022-12-12T03:44:39.761Z,100.00
2022-12-12T03:45:52.502Z,100.00
2022-12-12T03:46:59.260Z,100.00
2022-12-12T03:48:08.268Z,100.00
2022-12-12T03:49:15.929Z,100.00
2022-12-12T03:50:22.543Z,100.00
2022-12-12T03:51:29.255Z,100.00
2022-12-12T03:52:35.911Z,100.00
2022-12-12T03:53:44.798Z,100.00
2022-12-12T03:54:52.990Z,100.00
2022-12-12T03:55:58.104Z,100.00
2022-12-12T03:57:06.395Z,100.00
2022-12-12T03:58:14.807Z,100.00
2022-12-12T03:59:24.055Z,100.00
2022-12-12T04:00:33.738Z,100.00
2022-12-12T04:01:44.413Z,100.00
2022-12-12T04:02:52.940Z,100.00
2022-12-12T04:04:03.165Z,100.00
2022-12-12T04:05:15.963Z,100.00
2022-12-12T04:06:27.447Z,100.00
2022-12-12T04:07:34.519Z,100.00
2022-12-12T04:08:38.055Z,100.00
2022-12-12T04:09:59.444Z,100.00
2022-12-12T04:11:25.991Z,100.00
2022-12-12T04:12:56.363Z,100.00
2022-12-12T04:14:09.089Z,100.00
2022-12-12T04:15:22.351Z,100.00
2022-12-12T04:16:29.017Z,100.00
2022-12-12T04:17:37.867Z,100.00
2022-12-12T04:18:50.163Z,100.00
2022-12-12T04:20:16.879Z,100.00
2022-12-12T04:21:51.846Z,100.00
2022-12-12T04:23:16.754Z,100.00
2022-12-12T04:24:26.201Z,100.00
2022-12-12T04:25:56.634Z,100.00
2022-12-12T04:27:05.994Z,100.00
2022-12-12T04:28:08.193Z,100.00
2022-12-12T04:29:20.847Z,100.00
2022-12-12T04:30:24.826Z,100.00
2022-12-12T04:31:29.206Z,100.00
2022-12-12T04:32:37.156Z,100.00
2022-12-12T04:33:44.164Z,100.00
2022-12-12T04:34:52.321Z,100.00
2022-12-12T04:35:57.748Z,100.00
2022-12-12T04:37:04.032Z,100.00
2022-12-12T04:38:10.567Z,100.00
2022-12-12T04:39:17.966Z,100.00
2022-12-12T04:40:26.221Z,100.00
2022-12-12T04:41:31.174Z,100.00
2022-12-12T04:42:38.898Z,100.00
2022-12-12T04:43:43.584Z,100.00
2022-12-12T04:44:48.410Z,100.00
2022-12-12T04:45:54.878Z,100.00
2022-12-12T04:47:01.717Z,100.00
2022-12-12T04:48:06.921Z,100.00
2022-12-12T04:49:16.483Z,100.00
2022-12-12T04:50:21.068Z,100.00
2022-12-12T04:51:29.104Z,100.00
2022-12-12T04:52:35.317Z,100.00
2022-12-12T04:53:43.267Z,100.00
2022-12-12T04:54:50.626Z,100.00
2022-12-12T04:55:57.164Z,100.00
2022-12-12T04:57:03.315Z,100.00
2022-12-12T04:58:07.315Z,100.00
2022-12-12T04:59:10.583Z,100.00
2022-12-12T05:00:15.246Z,100.00
2022-12-12T05:01:23.342Z,100.00
2022-12-12T05:02:34.291Z,100.00
2022-12-12T05:03:44.028Z,100.00
2022-12-12T05:04:54.617Z,100.00
2022-12-12T05:06:00.390Z,100.00
2022-12-12T05:07:08.449Z,100.00
2022-12-12T05:08:17.202Z,100.00
2022-12-12T05:09:21.295Z,100.00
2022-12-12T05:10:24.448Z,100.00
2022-12-12T05:11:26.621Z,100.00
2022-12-12T05:12:29.628Z,100.00
2022-12-12T05:13:33.811Z,100.00
2022-12-12T05:14:36.827Z,100.00
2022-12-12T05:15:44.727Z,100.00
2022-12-12T05:16:51.138Z,100.00
2022-12-12T05:18:00.073Z,100.00
2022-12-12T05:19:02.249Z,100.00
2022-12-12T05:20:06.045Z,100.00
2022-12-12T05:21:08.052Z,100.00
2022-12-12T05:22:11.094Z,100.00
2022-12-12T05:23:14.796Z,100.00
2022-12-12T05:24:17.850Z,100.00
2022-12-12T05:25:20.430Z,100.00
2022-12-12T05:26:27.033Z,100.00
2022-12-12T05:27:29.093Z,100.00
2022-12-12T05:28:32.121Z,100.00
2022-12-12T05:29:35.200Z,100.00
2022-12-12T05:30:37.410Z,100.00
2022-12-12T05:31:40.499Z,100.00
2022-12-12T05:32:42.635Z,100.00
2022-12-12T05:33:46.411Z,100.00
2022-12-12T05:34:48.530Z,100.00
2022-12-12T05:35:51.590Z,100.00
2022-12-12T05:36:54.677Z,100.00
2022-12-12T05:37:57.719Z,100.00
2022-12-12T05:39:01.122Z,100.00
2022-12-12T05:40:04.860Z,100.00
2022-12-12T05:41:06.927Z,100.00
2022-12-12T05:42:09.961Z,100.00
2022-12-12T05:43:12.050Z,100.00
2022-12-12T05:44:15.062Z,100.00
2022-12-12T05:45:17.122Z,100.00
2022-12-12T05:46:20.215Z,100.00
2022-12-12T05:47:22.245Z,100.00
2022-12-12T05:48:25.280Z,100.00
2022-12-12T05:49:27.398Z,100.00
2022-12-12T05:50:30.389Z,100.00
2022-12-12T05:51:32.373Z,100.00
2022-12-12T05:52:36.809Z,100.00
2022-12-12T05:53:42.823Z,100.00
2022-12-12T05:54:47.793Z,100.00
2022-12-12T05:55:50.759Z,100.00
2022-12-12T05:56:53.776Z,100.00
2022-12-12T05:57:55.768Z,100.00
2022-12-12T05:58:58.896Z,100.00
2022-12-12T06:00:01.038Z,100.00
2022-12-12T06:01:05.625Z,100.00
2022-12-12T06:02:07.744Z,100.00
2022-12-12T06:03:10.852Z,100.00
2022-12-12T06:04:13.893Z,100.00
2022-12-12T06:05:16.220Z,100.00
2022-12-12T06:06:20.106Z,100.00
2022-12-12T06:07:22.160Z,100.00
2022-12-12T06:08:25.419Z,100.00
2022-12-12T06:09:28.855Z,100.00
2022-12-12T06:10:33.375Z,100.00
2022-12-12T06:11:36.437Z,100.00
2022-12-12T06:12:38.595Z,100.00
2022-12-12T06:13:41.620Z,100.00
2022-12-12T06:14:43.631Z,100.00
2022-12-12T06:15:46.669Z,100.00
2022-12-12T06:16:48.758Z,100.00
2022-12-12T06:17:52.385Z,100.00
2022-12-12T06:18:55.554Z,100.00
2022-12-12T06:19:58.613Z,100.00
2022-12-12T06:21:06.202Z,100.00
2022-12-12T06:22:08.265Z,100.00
2022-12-12T06:23:11.281Z,100.00
2022-12-12T06:24:13.537Z,100.00
2022-12-12T06:25:16.563Z,100.00
2022-12-12T06:26:21.451Z,100.00
2022-12-12T06:27:24.507Z,100.00
2022-12-12T06:28:27.524Z,100.00
2022-12-12T06:29:29.691Z,100.00
2022-12-12T06:30:32.788Z,100.00
2022-12-12T06:31:35.810Z,100.00
2022-12-12T06:32:38.849Z,100.00
2022-12-12T06:33:43.397Z,100.00
2022-12-12T06:34:45.441Z,100.00
2022-12-12T06:35:58.941Z,100.00
2022-12-12T06:37:01.929Z,100.00
2022-12-12T06:38:04.939Z,100.00
2022-12-12T06:39:07.430Z,100.00
2022-12-12T06:40:11.829Z,100.00
2022-12-12T06:41:15.861Z,100.00
2022-12-12T06:42:20.310Z,100.00
2022-12-12T06:43:22.494Z,100.00
2022-12-12T06:44:25.500Z,100.00
2022-12-12T06:45:28.527Z,100.00
2022-12-12T06:46:30.912Z,100.00
2022-12-12T06:47:34.017Z,100.00
2022-12-12T06:48:37.439Z,100.00
2022-12-12T06:49:40.548Z,100.00
2022-12-12T06:50:44.108Z,100.00
2022-12-12T06:51:48.887Z,100.00
2022-12-12T06:52:51.955Z,100.00
2022-12-12T06:53:54.240Z,100.00
2022-12-12T06:54:57.239Z,100.00
2022-12-12T06:56:00.374Z,100.00
2022-12-12T06:57:03.417Z,100.00
2022-12-12T06:58:06.834Z,100.00
2022-12-12T06:59:12.094Z,100.00
2022-12-12T07:00:16.353Z,100.00
2022-12-12T07:01:20.470Z,100.00
2022-12-12T07:02:29.608Z,100.00
2022-12-12T07:03:33.182Z,100.00
2022-12-12T07:04:36.187Z,100.00
2022-12-12T07:05:39.215Z,100.00
2022-12-12T07:06:41.571Z,100.00
2022-12-12T07:07:44.632Z,100.00
2022-12-12T07:08:46.866Z,100.00
2022-12-12T07:09:49.907Z,100.00
2022-12-12T07:10:52.001Z,100.00
2022-12-12T07:11:55.094Z,100.00
2022-12-12T07:12:58.421Z,100.00
2022-12-12T07:14:03.802Z,100.00
2022-12-12T07:15:07.552Z,100.00
2022-12-12T07:16:09.755Z,100.00
2022-12-12T07:17:12.871Z,100.00
2022-12-12T07:18:16.845Z,100.00
2022-12-12T07:19:19.924Z,100.00
2022-12-12T07:20:23.080Z,100.00
2022-12-12T07:21:25.696Z,100.00
2022-12-12T07:22:29.125Z,100.00
2022-12-12T07:23:31.297Z,100.00
2022-12-12T07:24:34.333Z,100.00
2022-12-12T07:25:38.565Z,100.00
2022-12-12T07:26:41.617Z,100.00
2022-12-12T07:27:43.786Z,100.00
2022-12-12T07:28:47.276Z,100.00
2022-12-12T07:29:51.861Z,100.00
2022-12-12T07:30:54.136Z,100.00
2022-12-12T07:31:57.415Z,100.00
2022-12-12T07:32:59.444Z,100.00
2022-12-12T07:34:02.476Z,100.00
2022-12-12T07:35:06.093Z,100.00
2022-12-12T07:36:08.615Z,100.00
2022-12-12T07:37:11.680Z,100.00
2022-12-12T07:38:13.703Z,100.00
2022-12-12T07:39:20.649Z,100.00
2022-12-12T07:40:23.425Z,100.00
2022-12-12T07:41:26.495Z,100.00
2022-12-12T07:42:29.546Z,100.00
2022-12-12T07:43:33.224Z,100.00
2022-12-12T07:44:37.094Z,100.00
2022-12-12T07:45:44.255Z,100.00
2022-12-12T07:46:47.252Z,100.00
2022-12-12T07:47:50.312Z,100.00
2022-12-12T07:48:54.690Z,100.00
2022-12-12T07:49:57.708Z,100.00
2022-12-12T07:51:01.166Z,100.00
2022-12-12T07:52:04.911Z,100.00
2022-12-12T07:53:07.667Z,100.00
2022-12-12T07:54:10.675Z,100.00
2022-12-12T07:55:14.035Z,100.00
2022-12-12T07:56:18.771Z,100.00
2022-12-12T07:57:21.832Z,100.00
2022-12-12T07:58:24.879Z,100.00
2022-12-12T07:59:27.020Z,100.00
2022-12-12T08:00:30.067Z,100.00
2022-12-12T08:01:35.025Z,100.00
2022-12-12T08:02:37.082Z,100.00
2022-12-12T08:03:40.341Z,100.00
2022-12-12T08:04:43.402Z,100.00
2022-12-12T08:05:45.477Z,100.00
2022-12-12T08:06:49.985Z,100.00
2022-12-12T08:07:53.749Z,100.00
2022-12-12T08:08:57.051Z,100.00
2022-12-12T08:09:59.050Z,100.00
2022-12-12T08:11:06.520Z,100.00
2022-12-12T08:12:09.585Z,100.00
2022-12-12T08:13:11.970Z,100.00
2022-12-12T08:14:15.135Z,100.00
2022-12-12T08:15:19.185Z,100.00
2022-12-12T08:16:24.412Z,100.00
2022-12-12T08:17:28.949Z,100.00
2022-12-12T08:18:32.115Z,100.00
2022-12-12T08:19:35.679Z,100.00
2022-12-12T08:20:40.912Z,100.00
2022-12-12T08:21:44.611Z,100.00
2022-12-12T08:22:47.619Z,100.00
2022-12-12T08:23:50.612Z,100.00
2022-12-12T08:24:53.608Z,100.00
2022-12-12T08:25:56.524Z,100.00
2022-12-12T08:26:59.635Z,100.00
2022-12-12T08:28:01.757Z,100.00
2022-12-12T08:29:05.337Z,100.00
2022-12-12T08:30:10.170Z,100.00
2022-12-12T08:31:15.793Z,100.00
2022-12-12T08:32:18.826Z,100.00
2022-12-12T08:33:23.219Z,100.00
2022-12-12T08:34:26.419Z,100.00
2022-12-12T08:35:29.554Z,100.00
2022-12-12T08:36:34.909Z,100.00
2022-12-12T08:37:36.897Z,100.00
2022-12-12T08:38:40.042Z,100.00
2022-12-12T08:39:42.030Z,100.00
2022-12-12T08:40:45.762Z,100.00
2022-12-12T08:41:50.939Z,100.00
2022-12-12T08:42:53.994Z,100.00
2022-12-12T08:43:57.022Z,100.00
2022-12-12T08:44:59.012Z,100.00
2022-12-12T08:46:02.415Z,100.00
2022-12-12T08:47:05.747Z,100.00
2022-12-12T08:48:09.834Z,100.00
2022-12-12T08:49:16.276Z,100.00
2022-12-12T08:50:20.209Z,100.00
2022-12-12T08:51:24.278Z,100.00
2022-12-12T08:52:27.379Z,100.00
2022-12-12T08:53:30.833Z,100.00
2022-12-12T08:54:34.085Z,100.00
2022-12-12T08:55:37.330Z,100.00
2022-12-12T08:56:41.081Z,100.00
2022-12-12T08:57:44.323Z,100.00
2022-12-12T08:58:46.736Z,100.00
2022-12-12T08:59:49.780Z,100.00
2022-12-12T09:00:53.120Z,100.00
2022-12-12T09:01:57.195Z,100.00
2022-12-12T09:03:00.632Z,100.00
2022-12-12T09:04:03.967Z,100.00
2022-12-12T09:05:09.280Z,100.00
2022-12-12T09:06:13.027Z,100.00
2022-12-12T09:07:16.117Z,100.00
2022-12-12T09:08:19.356Z,100.00
2022-12-12T09:09:22.678Z,100.00
2022-12-12T09:10:25.738Z,100.00
2022-12-12T09:11:28.831Z,100.00
2022-12-12T09:12:35.610Z,100.00
2022-12-12T09:13:41.470Z,100.00
2022-12-12T09:14:44.476Z,100.00
2022-12-12T09:15:51.592Z,100.00
2022-12-12T09:16:56.794Z,100.00
2022-12-12T09:17:59.826Z,100.00
2022-12-12T09:19:03.178Z,100.00
2022-12-12T09:20:08.595Z,100.00
2022-12-12T09:21:10.608Z,100.00
2022-12-12T09:22:13.707Z,100.00
2022-12-12T09:23:16.814Z,100.00
2022-12-12T09:24:19.795Z,100.00
2022-12-12T09:25:22.863Z,100.00
2022-12-12T09:26:25.879Z,100.00
2022-12-12T09:27:28.148Z,100.00
2022-12-12T09:28:31.165Z,100.00
2022-12-12T09:29:34.232Z,100.00
2022-12-12T09:30:37.285Z,100.00
2022-12-12T09:31:40.446Z,100.00
2022-12-12T09:32:45.332Z,100.00
2022-12-12T09:33:49.027Z,100.00
2022-12-12T09:34:53.212Z,100.00
2022-12-12T09:36:02.027Z,100.00
2022-12-12T09:37:05.151Z,100.00
2022-12-12T09:38:13.965Z,100.00
2022-12-12T09:39:17.737Z,100.00
2022-12-12T09:40:28.640Z,100.00
2022-12-12T09:41:31.842Z,100.00
2022-12-12T09:42:35.628Z,100.00
2022-12-12T09:43:45.236Z,100.00
2022-12-12T09:44:49.461Z,100.00
2022-12-12T09:45:53.071Z,100.00
2022-12-12T09:47:00.580Z,100.00
2022-12-12T09:48:05.753Z,100.00
2022-12-12T09:49:15.261Z,100.00
2022-12-12T09:50:25.584Z,100.00
2022-12-12T09:51:30.175Z,100.00
2022-12-12T09:52:36.108Z,100.00
2022-12-12T09:53:41.248Z,100.00
2022-12-12T09:54:44.645Z,100.00
2022-12-12T09:55:56.041Z,100.00
2022-12-12T09:57:12.207Z,100.00
2022-12-12T09:58:24.616Z,100.00
2022-12-12T09:59:35.057Z,100.00
2022-12-12T10:00:44.606Z,100.00
2022-12-12T10:02:01.229Z,100.00
2022-12-12T10:03:18.074Z,100.00
2022-12-12T10:04:29.514Z,100.00
2022-12-12T10:05:40.891Z,100.00
2022-12-12T10:06:52.188Z,100.00
2022-12-12T10:08:02.777Z,100.00
2022-12-12T10:09:26.982Z,100.00
2022-12-12T10:10:33.686Z,100.00
2022-12-12T10:11:54.829Z,100.00
2022-12-12T10:12:59.344Z,100.00
2022-12-12T10:14:04.999Z,100.00
2022-12-12T10:15:16.304Z,100.00
2022-12-12T10:16:19.504Z,100.00
2022-12-12T10:17:27.678Z,100.00
2022-12-12T10:18:35.417Z,100.00
2022-12-12T10:19:47.332Z,100.00
2022-12-12T10:20:53.310Z,100.00
2022-12-12T10:22:03.348Z,100.00
2022-12-12T10:23:14.392Z,100.00
2022-12-12T10:24:28.433Z,100.00
2022-12-12T10:25:42.657Z,100.00
2022-12-12T10:26:44.885Z,100.00
2022-12-12T10:27:49.723Z,100.00
2022-12-12T10:28:55.426Z,100.00
2022-12-12T10:30:05.814Z,100.00
2022-12-12T10:31:23.984Z,100.00
2022-12-12T10:32:37.348Z,100.00
2022-12-12T10:33:52.352Z,99.92
2022-12-12T10:35:04.300Z,99.97
2022-12-12T10:36:15.144Z,99.60
2022-12-12T10:37:31.232Z,99.62
2022-12-12T10:38:52.148Z,99.18
2022-12-12T10:40:05.188Z,98.91
2022-12-12T10:41:16.489Z,99.08
2022-12-12T10:42:28.871Z,99.07
2022-12-12T10:43:39.096Z,98.85
2022-12-12T10:45:00.936Z,99.19
2022-12-12T10:46:19.276Z,99.04
2022-12-12T10:47:21.543Z,99.14
2022-12-12T10:48:24.660Z,99.17
2022-12-12T10:49:27.936Z,99.22
2022-12-12T10:50:34.848Z,98.51
2022-12-12T10:51:37.977Z,98.82
2022-12-12T10:52:42.386Z,98.73
2022-12-12T10:53:45.290Z,98.58
2022-12-12T10:54:52.920Z,98.79
2022-12-12T10:55:59.959Z,98.77
2022-12-12T10:57:18.033Z,98.44
2022-12-12T10:58:26.260Z,98.37
2022-12-12T10:59:28.666Z,98.25
2022-12-12T11:00:33.755Z,98.54
2022-12-12T11:03:13.661Z,98.30
2022-12-12T11:04:16.986Z,98.58
2022-12-12T11:05:24.789Z,98.67
2022-12-12T11:06:31.504Z,98.49
2022-12-12T11:07:37.881Z,98.38
2022-12-12T11:08:53.849Z,98.36
2022-12-12T11:10:01.931Z,98.17
2022-12-12T11:11:08.643Z,97.85
2022-12-12T11:12:15.665Z,98.07
2022-12-12T11:13:18.908Z,97.41
2022-12-12T11:14:28.034Z,97.53
2022-12-12T11:15:40.597Z,97.53
2022-12-12T11:16:45.411Z,97.30
2022-12-12T11:17:50.266Z,97.61
2022-12-12T11:19:04.407Z,97.53
2022-12-12T11:20:10.673Z,97.59
2022-12-12T11:21:15.112Z,97.79
2022-12-12T11:22:18.234Z,97.64
2022-12-12T11:23:25.928Z,97.69
2022-12-12T11:24:33.360Z,97.61
2022-12-12T11:25:37.615Z,97.27
2022-12-12T11:26:46.400Z,97.54
2022-12-12T11:27:49.742Z,97.26
2022-12-12T11:28:57.257Z,97.52
2022-12-12T11:30:02.621Z,97.57
2022-12-12T11:31:08.227Z,97.55
2022-12-12T11:32:14.315Z,97.27
2022-12-12T11:33:20.918Z,96.97
2022-12-12T11:34:27.338Z,97.20
2022-12-12T11:35:35.901Z,97.18
2022-12-12T11:36:41.552Z,97.28
2022-12-12T11:37:49.427Z,97.10
2022-12-12T11:38:55.957Z,97.04
2022-12-12T11:39:59.374Z,96.97
2022-12-12T11:41:05.786Z,97.04
2022-12-12T11:42:19.467Z,96.94
2022-12-12T11:43:26.339Z,97.08
2022-12-12T11:44:34.496Z,97.08
2022-12-12T11:45:37.605Z,96.87
2022-12-12T11:46:40.889Z,96.86
2022-12-12T11:47:44.668Z,96.91
2022-12-12T11:48:57.752Z,96.81
2022-12-12T11:50:04.969Z,96.77
2022-12-12T11:51:12.733Z,96.94
2022-12-12T11:52:20.866Z,96.92
2022-12-12T11:53:23.929Z,96.52
2022-12-12T11:54:31.034Z,96.33
2022-12-12T11:55:44.408Z,96.40
2022-12-12T11:56:54.856Z,96.22
2022-12-12T11:58:11.905Z,96.03
2022-12-12T11:59:38.236Z,96.18
2022-12-12T12:00:46.964Z,96.07
2022-12-12T12:02:00.749Z,96.11
2022-12-12T12:03:29.806Z,95.81
2022-12-12T12:04:53.225Z,95.43
2022-12-12T12:06:15.123Z,95.32
2022-12-12T12:07:39.180Z,95.09
2022-12-12T12:09:03.891Z,95.42
2022-12-12T12:10:18.336Z,95.08
2022-12-12T12:11:32.675Z,94.70
2022-12-12T12:12:50.718Z,94.62
2022-12-12T12:14:09.452Z,94.63
2022-12-12T12:15:28.376Z,94.67
2022-12-12T12:16:40.934Z,94.64
2022-12-12T12:18:01.088Z,94.14
2022-12-12T12:19:12.731Z,93.95
2022-12-12T12:20:25.582Z,93.93
2022-12-12T12:21:37.028Z,93.94
2022-12-12T12:22:49.881Z,94.12
2022-12-12T12:24:04.273Z,93.65
2022-12-12T12:25:32.821Z,93.79
2022-12-12T12:26:44.311Z,93.77
2022-12-12T12:27:57.686Z,94.16
2022-12-12T12:29:28.911Z,94.00
2022-12-12T12:30:40.375Z,94.06
2022-12-12T12:31:53.797Z,93.98
2022-12-12T12:33:24.813Z,94.06
2022-12-12T12:34:32.683Z,94.07
2022-12-12T12:35:50.788Z,94.36
2022-12-12T12:37:09.248Z,94.19
2022-12-12T12:38:24.759Z,94.25
2022-12-12T12:39:47.015Z,94.10
2022-12-12T12:41:07.850Z,94.26
2022-12-12T12:42:23.673Z,94.10
2022-12-12T12:43:46.730Z,93.76
2022-12-12T12:44:56.205Z,93.35
2022-12-12T12:46:08.410Z,93.39
2022-12-12T12:47:22.039Z,93.18
2022-12-12T12:48:35.418Z,93.04
2022-12-12T12:49:44.751Z,93.11
2022-12-12T12:50:53.011Z,93.36
2022-12-12T12:52:00.348Z,93.01
2022-12-12T12:53:08.988Z,92.73
2022-12-12T12:54:19.306Z,93.09
2022-12-12T12:55:27.805Z,92.96
2022-12-12T12:56:33.559Z,93.08
2022-12-12T12:57:41.400Z,93.03
2022-12-12T12:58:48.551Z,92.72
2022-12-12T12:59:57.126Z,92.99
2022-12-12T13:01:04.746Z,92.96
2022-12-12T13:02:26.808Z,92.94
2022-12-12T13:03:37.823Z,92.64
2022-12-12T13:04:46.179Z,92.76
2022-12-12T13:05:53.705Z,92.50
2022-12-12T13:07:01.123Z,92.59
2022-12-12T13:08:14.673Z,92.37
2022-12-12T13:09:28.357Z,92.26
2022-12-12T13:10:33.948Z,92.08
2022-12-12T13:11:42.918Z,91.82
2022-12-12T13:12:53.235Z,91.47
2022-12-12T13:14:00.467Z,91.79
2022-12-12T13:15:07.544Z,91.69
2022-12-12T13:16:15.003Z,91.93
2022-12-12T13:17:21.474Z,91.42
2022-12-12T13:18:25.267Z,90.71
2022-12-12T13:19:32.469Z,90.69
2022-12-12T13:20:40.377Z,90.33
2022-12-12T13:21:51.416Z,89.96
2022-12-12T13:23:09.408Z,89.69
2022-12-12T13:24:20.289Z,89.70
2022-12-12T13:25:34.573Z,89.57
2022-12-12T13:26:44.503Z,89.62
2022-12-12T13:27:54.406Z,89.23
2022-12-12T13:29:00.901Z,89.42
2022-12-12T13:30:10.147Z,89.33
2022-12-12T13:31:32.279Z,89.86
2022-12-12T13:32:58.399Z,89.58
2022-12-12T13:34:06.095Z,89.64
2022-12-12T13:35:13.796Z,89.14
2022-12-12T13:36:29.081Z,89.67
2022-12-12T13:37:37.468Z,89.95
2022-12-12T13:38:42.024Z,90.07
2022-12-12T13:39:45.630Z,89.68
2022-12-12T13:40:57.043Z,89.73
2022-12-12T13:42:02.407Z,89.94
2022-12-12T13:43:10.303Z,90.07
2022-12-12T13:44:34.118Z,90.23
2022-12-12T13:45:42.854Z,90.40
2022-12-12T13:46:45.985Z,90.16
2022-12-12T13:48:02.306Z,90.27
2022-12-12T13:49:20.133Z,90.60
2022-12-12T13:50:24.357Z,90.93
2022-12-12T13:51:38.905Z,90.84
2022-12-12T13:52:43.470Z,90.92
2022-12-12T13:53:45.542Z,91.07
2022-12-12T13:54:49.120Z,91.08
2022-12-12T13:56:27.004Z,91.18
2022-12-12T13:57:33.459Z,91.36
2022-12-12T13:58:37.889Z,91.25
2022-12-12T14:00:29.979Z,91.74
2022-12-12T14:01:40.195Z,92.00
2022-12-12T14:02:46.801Z,91.97
2022-12-12T14:03:50.041Z,91.71
2022-12-12T14:05:10.177Z,92.25
2022-12-12T14:06:19.530Z,92.37
2022-12-12T14:07:25.548Z,92.40
2022-12-12T14:08:32.180Z,92.93
2022-12-12T14:09:48.464Z,93.33
2022-12-12T14:11:00.193Z,93.25
2022-12-12T14:12:07.565Z,93.67